الصفحة الرئيسية
METAR-TAF:

METAR-TAF

مطار :

بندر جاسك, إيران

دائرة عرض: 26-38N, خط طول: 057-46E, ارتفاع: 3 متر

مراقبة الطقس الحالي

تاريخ ووقت الإصدار 2ساعات و 34 دقيقة قبل الساعة 21:00UTC
ريح 10 عقدة من الشمال الغربي
درجة الحرارة 33°درجة مئوية
الرطوبة 84%
ضغط 994 hPa
الرؤية: 6000 متر

METAR: OIZJ 242100Z 32010KT 6000 NSC 33/30 Q0994

زمن: 04:04 (23:34 UTC)


TAF: مفقودة

أرصاد الطقس والتوقعات من أكثر من 4000 مطار (تقارير الطقس للمطار METAR والتنبؤ بالطقس بالمطارTAF).

المحطات المتاحة هي النقط الصفراء والحمراء على الخريطة.

حرك المؤشر فوق النقطة لمعرفة اسم المحطة.

ثم انقر لمعرفة أرصاد وتوقعات الطقس.

لتغيير الخارطة: اضغط على الأزرار الخضراء مع رمز الصليب الأسود للتكبير. على الزر الأخضر مع شرطة للتصغير، أو على الأسهم الخضراء للخرائط المجاورة.


METAR-TAF: